Time;durP1;ratioP1;P1;durP2;ratioP2;P2;SDS_P1;SDS_P2;PMS_P1;PMS_P2;Temp;Humidity;BMP_temperature;BMP_pressure;BME280_temperature;BME280_humidity;BME280_pressure;Samples;Min_cycle;Max_cycle;Signal;HPM_P1;HPM_P2
2021/04/27 00:00:45;;;;;;;11.13;4.25;;;10.50;67.80;;;;;;5058823;28;20291;-75
2021/04/27 00:03:14;;;;;;;9.32;4.10;;;10.40;68.10;;;;;;5060454;28;20285;-74
2021/04/27 00:05:40;;;;;;;10.32;4.47;;;10.40;68.40;;;;;;5061135;28;20753;-72
2021/04/27 00:08:07;;;;;;;8.27;4.18;;;10.40;68.40;;;;;;5065208;28;20195;-74
2021/04/27 00:10:33;;;;;;;9.02;4.53;;;10.40;68.50;;;;;;5064323;28;20199;-74
2021/04/27 00:13:01;;;;;;;14.20;4.25;;;10.40;68.50;;;;;;5066036;28;20205;-74
2021/04/27 00:15:29;;;;;;;7.70;3.88;;;10.40;68.60;;;;;;5060563;28;20570;-74
2021/04/27 00:17:56;;;;;;;13.18;3.97;;;10.40;68.60;;;;;;5058894;28;20210;-73
2021/04/27 00:20:25;;;;;;;11.80;4.40;;;10.40;68.60;;;;;;5069072;28;20639;-73
2021/04/27 00:22:53;;;;;;;10.68;3.88;;;10.40;68.70;;;;;;5072373;28;20201;-73
2021/04/27 00:25:20;;;;;;;6.68;3.80;;;10.30;68.60;;;;;;5064315;28;20313;-74
2021/04/27 00:27:49;;;;;;;7.10;3.88;;;10.30;68.60;;;;;;5058051;28;20222;-74
2021/04/27 00:30:16;;;;;;;8.73;4.25;;;10.30;68.60;;;;;;5062513;28;20987;-75
2021/04/27 00:32:43;;;;;;;13.00;4.15;;;10.30;68.70;;;;;;5059677;28;20210;-73
2021/04/27 00:35:10;;;;;;;9.98;4.18;;;10.30;68.70;;;;;;5072636;28;20313;-74
2021/04/27 00:37:38;;;;;;;10.77;4.20;;;10.30;68.70;;;;;;5057272;28;20236;-74
2021/04/27 00:40:06;;;;;;;8.65;3.72;;;10.20;68.60;;;;;;5059418;28;20710;-73
2021/04/27 00:42:34;;;;;;;10.55;4.22;;;10.20;68.80;;;;;;5061174;28;20207;-73
2021/04/27 00:45:01;;;;;;;9.13;4.15;;;10.20;68.90;;;;;;5064358;28;20233;-74
2021/04/27 00:47:28;;;;;;;9.15;4.30;;;10.20;69.00;;;;;;5059914;28;20194;-73
2021/04/27 00:49:55;;;;;;;5.40;3.78;;;10.20;69.00;;;;;;5057138;28;20206;-75
2021/04/27 00:52:22;;;;;;;12.80;3.83;;;10.20;69.00;;;;;;5057925;28;20743;-74
2021/04/27 00:54:51;;;;;;;7.20;4.68;;;10.10;69.10;;;;;;5062293;28;20587;-74
2021/04/27 00:57:18;;;;;;;9.27;5.05;;;10.10;69.30;;;;;;5059895;28;20203;-74
2021/04/27 00:59:44;;;;;;;8.88;4.93;;;10.00;69.30;;;;;;5061128;28;20718;-75
2021/04/27 01:02:11;;;;;;;8.23;5.32;;;10.00;69.70;;;;;;5057445;28;20202;-74
2021/04/27 01:04:37;;;;;;;9.93;5.32;;;10.00;69.90;;;;;;5063494;28;20210;-75
2021/04/27 01:07:04;;;;;;;10.02;5.55;;;10.00;70.00;;;;;;5067853;28;20268;-75
2021/04/27 01:09:36;;;;;;;11.68;6.40;;;10.00;69.90;;;;;;5063572;28;20655;-74
2021/04/27 01:12:10;;;;;;;13.52;7.35;;;10.00;70.00;;;;;;5067978;28;20229;-75
2021/04/27 01:14:39;;;;;;;10.68;7.05;;;10.00;70.00;;;;;;5065745;28;20203;-75
2021/04/27 01:17:15;;;;;;;22.70;7.45;;;10.00;70.10;;;;;;5063250;28;20898;-74
2021/04/27 01:19:58;;;;;;;12.90;6.93;;;10.00;70.20;;;;;;5058633;28;20213;-74
2021/04/27 01:22:32;;;;;;;12.18;7.43;;;10.00;70.10;;;;;;5056311;28;21735;-74
2021/04/27 01:25:04;;;;;;;11.20;6.70;;;10.00;70.20;;;;;;5060069;28;20666;-73
2021/04/27 01:27:33;;;;;;;15.48;7.53;;;10.00;70.50;;;;;;5059771;28;20244;-75
2021/04/27 01:30:00;;;;;;;17.92;7.25;;;9.90;70.70;;;;;;5059768;28;20208;-75
2021/04/27 01:32:28;;;;;;;14.38;7.50;;;9.90;70.70;;;;;;5056066;28;20671;-74
2021/04/27 01:34:55;;;;;;;18.70;8.48;;;9.90;70.80;;;;;;5057321;28;20194;-73
2021/04/27 01:37:41;;;;;;;18.73;8.38;;;9.90;70.90;;;;;;5062758;28;20226;-74
2021/04/27 01:40:10;;;;;;;16.23;8.45;;;9.90;71.00;;;;;;5062559;28;20202;-74
2021/04/27 01:42:37;;;;;;;15.30;7.70;;;9.80;71.00;;;;;;5059795;28;20213;-74
2021/04/27 01:45:06;;;;;;;12.55;7.40;;;9.80;71.10;;;;;;5063112;28;20285;-74
2021/04/27 01:47:33;;;;;;;18.85;7.25;;;9.80;71.30;;;;;;5059657;28;20199;-74
2021/04/27 01:50:00;;;;;;;10.00;6.40;;;9.80;71.40;;;;;;5068935;28;20565;-73
2021/04/27 01:52:53;;;;;;;14.40;6.80;;;9.80;71.50;;;;;;5061788;28;20297;-75
2021/04/27 01:55:20;;;;;;;14.02;6.72;;;9.80;71.60;;;;;;5059528;28;20301;-75
2021/04/27 01:57:48;;;;;;;12.15;6.93;;;9.70;71.70;;;;;;5059898;28;20785;-76
2021/04/27 02:00:18;;;;;;;9.90;6.88;;;9.70;71.70;;;;;;5061439;28;20226;-73
2021/04/27 02:02:50;;;;;;;14.45;7.43;;;9.70;71.80;;;;;;5061667;28;20201;-75
2021/04/27 02:05:49;;;;;;;11.18;6.85;;;9.70;71.90;;;;;;5036220;28;20210;-75
2021/04/27 02:08:21;;;;;;;11.90;7.22;;;9.70;72.00;;;;;;5058351;28;20217;-73
2021/04/27 02:10:51;;;;;;;11.88;7.72;;;9.60;72.00;;;;;;5056610;28;20215;-73
2021/04/27 02:13:19;;;;;;;13.27;7.97;;;9.70;72.10;;;;;;5055653;28;20674;-74
2021/04/27 02:16:00;;;;;;;11.05;7.45;;;9.60;72.20;;;;;;5059796;28;20266;-75
2021/04/27 02:18:33;;;;;;;14.85;7.68;;;9.60;73.10;;;;;;5060502;28;20225;-75
2021/04/27 02:21:04;;;;;;;13.55;6.93;;;9.60;72.30;;;;;;5057497;28;20289;-75
2021/04/27 02:23:50;;;;;;;16.23;8.43;;;9.50;72.40;;;;;;5060001;28;20225;-74
2021/04/27 02:26:18;;;;;;;12.55;8.25;;;9.50;72.40;;;;;;5058407;28;20221;-75
2021/04/27 02:28:55;;;;;;;13.10;8.38;;;9.50;72.50;;;;;;5057735;28;20654;-74
2021/04/27 02:31:22;;;;;;;18.77;9.25;;;9.50;72.60;;;;;;5058407;28;20698;-75
2021/04/27 02:33:49;;;;;;;18.63;8.15;;;9.50;72.60;;;;;;5071524;28;20194;-74
2021/04/27 02:36:16;;;;;;;16.45;8.80;;;9.40;72.70;;;;;;5059216;28;20199;-75
2021/04/27 02:39:05;;;;;;;14.52;8.43;;;9.40;72.80;;;;;;5056821;28;20349;-74
2021/04/27 02:41:32;;;;;;;16.92;10.27;;;9.40;72.70;;;;;;5056643;28;20465;-74
2021/04/27 02:44:06;;;;;;;14.45;10.38;;;9.70;74.20;;;;;;5063170;28;20492;-74
2021/04/27 02:46:33;;;;;;;17.30;9.90;;;10.00;73.10;;;;;;5062056;28;20572;-75
2021/04/27 02:49:04;;;;;;;15.73;10.20;;;9.80;73.10;;;;;;5066208;28;20682;-74
2021/04/27 02:51:32;;;;;;;18.25;10.27;;;9.60;73.30;;;;;;5068072;28;20325;-75
2021/04/27 02:54:05;;;;;;;18.15;11.25;;;9.50;73.50;;;;;;5062843;28;20203;-74
2021/04/27 02:56:32;;;;;;;18.83;10.80;;;9.40;73.60;;;;;;5066306;28;20209;-74
2021/04/27 02:58:59;;;;;;;19.92;10.55;;;9.30;73.60;;;;;;5061322;28;20285;-74
2021/04/27 03:01:27;;;;;;;19.42;10.43;;;9.30;73.60;;;;;;5075386;28;20206;-75
2021/04/27 03:03:54;;;;;;;17.05;9.93;;;9.30;73.60;;;;;;5058380;28;20214;-74
2021/04/27 03:06:25;;;;;;;15.43;9.93;;;9.20;73.70;;;;;;5060797;28;20862;-74
2021/04/27 03:09:11;;;;;;;18.95;9.90;;;9.20;73.70;;;;;;5060938;28;20206;-75
2021/04/27 03:11:41;;;;;;;17.15;9.48;;;9.20;73.70;;;;;;5060789;28;20207;-75
2021/04/27 03:14:09;;;;;;;14.80;9.68;;;9.10;73.70;;;;;;5058795;28;20198;-74
2021/04/27 03:16:38;;;;;;;17.52;9.60;;;9.10;73.80;;;;;;5061316;28;20211;-74
2021/04/27 03:19:06;;;;;;;23.25;10.00;;;9.10;73.90;;;;;;5062490;28;20249;-74
2021/04/27 03:21:37;;;;;;;18.63;9.82;;;9.10;73.90;;;;;;5056976;28;20212;-74
2021/04/27 03:24:04;;;;;;;17.77;9.27;;;9.10;74.10;;;;;;5066592;28;20658;-74
2021/04/27 03:26:31;;;;;;;15.90;8.68;;;9.00;74.00;;;;;;5059669;28;21223;-74
2021/04/27 03:29:12;;;;;;;11.43;7.45;;;9.00;74.10;;;;;;5062667;28;20199;-74
2021/04/27 03:31:46;;;;;;;12.63;7.07;;;9.00;74.30;;;;;;5058704;28;20298;-75
2021/04/27 03:34:12;;;;;;;11.00;6.90;;;9.00;74.30;;;;;;5062241;28;20242;-74
2021/04/27 03:36:39;;;;;;;12.35;6.95;;;9.00;74.40;;;;;;5065004;28;20714;-73
2021/04/27 03:39:07;;;;;;;11.88;6.93;;;9.00;74.40;;;;;;5060409;28;22849;-74
2021/04/27 03:41:33;;;;;;;14.02;7.40;;;9.00;74.40;;;;;;5058158;28;20210;-74
2021/04/27 03:44:00;;;;;;;13.50;7.25;;;9.00;74.40;;;;;;5060888;28;20218;-74
2021/04/27 03:46:28;;;;;;;17.27;7.95;;;9.00;74.50;;;;;;5058583;28;20226;-73
2021/04/27 03:48:55;;;;;;;12.55;8.02;;;9.00;74.40;;;;;;5060775;28;20293;-74
2021/04/27 03:51:23;;;;;;;14.43;8.05;;;9.10;74.40;;;;;;5075756;28;20202;-74
2021/04/27 03:53:58;;;;;;;14.35;8.15;;;9.10;74.40;;;;;;5062992;28;20285;-76
2021/04/27 03:56:31;;;;;;;17.55;8.27;;;9.10;74.40;;;;;;5072593;28;20206;-76
2021/04/27 03:59:00;;;;;;;13.60;8.77;;;9.10;74.50;;;;;;5057954;28;20349;-72
2021/04/27 04:01:27;;;;;;;15.20;7.55;;;9.10;74.40;;;;;;5063752;28;20672;-74
2021/04/27 04:03:55;;;;;;;17.60;7.00;;;9.10;74.40;;;;;;5057851;28;20203;-74
2021/04/27 04:06:21;;;;;;;13.95;6.63;;;9.10;74.60;;;;;;5078905;28;20676;-74
2021/04/27 04:08:53;;;;;;;10.82;5.63;;;9.10;74.40;;;;;;5061897;28;20636;-73
2021/04/27 04:11:22;;;;;;;13.70;5.47;;;9.10;74.30;;;;;;5057952;28;20587;-73
2021/04/27 04:13:49;;;;;;;9.27;5.70;;;9.10;74.40;;;;;;5058745;28;20291;-73
2021/04/27 04:16:16;;;;;;;7.38;4.93;;;9.00;74.30;;;;;;5059998;28;21537;-74
2021/04/27 04:18:43;;;;;;;8.63;4.72;;;9.00;74.40;;;;;;5059091;28;20686;-73
2021/04/27 04:21:11;;;;;;;16.58;5.03;;;9.00;74.50;;;;;;5060563;28;20203;-73
2021/04/27 04:24:10;;;;;;;9.00;4.10;;;9.00;74.40;;;;;;5052548;28;20653;-74
2021/04/27 04:26:37;;;;;;;11.15;4.60;;;9.00;74.50;;;;;;5060220;28;20724;-75
2021/04/27 04:29:24;;;;;;;8.13;4.40;;;9.00;74.60;;;;;;5076990;28;20260;-76
2021/04/27 04:32:13;;;;;;;10.68;4.40;;;9.00;74.60;;;;;;5063486;28;20207;-75
2021/04/27 04:34:58;;;;;;;5.63;4.18;;;9.00;74.50;;;;;;5063641;28;20321;-73
2021/04/27 04:37:55;;;;;;;7.82;4.07;;;9.00;74.40;;;;;;5042515;28;20264;-73
2021/04/27 04:40:40;;;;;;;13.02;4.65;;;9.00;74.30;;;;;;5059836;28;20217;-73
2021/04/27 04:43:26;;;;;;;11.18;3.78;;;9.00;74.00;;;;;;5057797;28;20233;-73
2021/04/27 04:46:15;;;;;;;11.25;4.65;;;9.00;74.00;;;;;;5040719;28;20797;-73
2021/04/27 04:49:01;;;;;;;12.68;4.20;;;9.00;73.90;;;;;;5060363;28;20577;-73
2021/04/27 04:51:50;;;;;;;7.10;4.07;;;9.00;73.80;;;;;;5061889;28;20210;-75
2021/04/27 04:54:32;;;;;;;7.22;4.53;;;9.00;73.80;;;;;;5068936;28;20289;-74
2021/04/27 04:56:59;;;;;;;6.03;4.00;;;9.00;74.00;;;;;;5064997;28;20207;-74
2021/04/27 04:59:25;;;;;;;9.20;4.85;;;9.00;74.00;;;;;;5060033;28;20288;-74
2021/04/27 05:01:52;;;;;;;12.60;4.50;;;9.10;73.90;;;;;;5058661;28;20293;-74
2021/04/27 05:04:38;;;;;;;8.77;4.97;;;9.10;73.90;;;;;;5058117;28;20687;-73
2021/04/27 05:07:25;;;;;;;10.25;4.70;;;9.00;73.80;;;;;;5057284;28;20265;-73
2021/04/27 05:10:19;;;;;;;8.73;4.90;;;8.90;73.70;;;;;;5061354;28;20298;-73
2021/04/27 05:12:58;;;;;;;8.55;4.75;;;8.90;74.00;;;;;;5055135;28;20927;-73
2021/04/27 05:15:24;;;;;;;10.68;4.82;;;8.90;74.00;;;;;;5058255;28;20209;-74
2021/04/27 05:17:51;;;;;;;9.95;5.32;;;8.90;74.10;;;;;;5059558;28;20198;-75
2021/04/27 05:20:18;;;;;;;9.05;5.10;;;9.00;74.20;;;;;;5059883;28;20236;-77
2021/04/27 05:22:48;;;;;;;10.43;4.97;;;9.00;74.20;;;;;;5073797;28;20246;-73
2021/04/27 05:25:17;;;;;;;11.70;5.10;;;9.00;74.20;;;;;;5080865;28;20229;-72
2021/04/27 05:28:02;;;;;;;13.82;5.30;;;9.00;74.30;;;;;;5074794;28;20190;-72
2021/04/27 05:30:28;;;;;;;8.55;5.22;;;9.00;74.60;;;;;;5069097;28;20257;-73
2021/04/27 05:32:55;;;;;;;9.32;5.05;;;9.10;74.60;;;;;;5069785;28;20719;-72
2021/04/27 05:35:21;;;;;;;7.68;5.18;;;9.10;74.60;;;;;;5064208;28;20209;-73
2021/04/27 05:37:47;;;;;;;9.43;5.40;;;9.20;74.70;;;;;;5070059;28;20282;-72
2021/04/27 05:40:14;;;;;;;9.55;5.25;;;9.20;74.60;;;;;;5069057;28;20198;-73
2021/04/27 05:42:41;;;;;;;8.25;5.10;;;9.20;75.30;;;;;;5072714;28;20925;-73
2021/04/27 05:45:10;;;;;;;10.38;5.63;;;9.30;74.50;;;;;;5073225;28;20194;-72
2021/04/27 05:47:36;;;;;;;9.35;5.40;;;9.30;74.50;;;;;;5071803;28;20244;-73
2021/04/27 05:50:04;;;;;;;11.88;5.30;;;9.30;74.40;;;;;;5068356;28;20191;-72
2021/04/27 05:52:30;;;;;;;8.10;4.72;;;9.30;74.30;;;;;;5064348;28;20234;-72
2021/04/27 05:54:56;;;;;;;8.90;5.57;;;9.30;74.40;;;;;;5065371;28;20556;-72
2021/04/27 05:57:23;;;;;;;8.70;5.45;;;9.40;74.50;;;;;;5063619;28;20226;-73
2021/04/27 05:59:49;;;;;;;11.43;5.32;;;9.40;74.60;;;;;;5063785;28;20332;-74
2021/04/27 06:02:17;;;;;;;8.88;5.32;;;9.40;74.60;;;;;;5066085;28;20203;-75
2021/04/27 06:04:43;;;;;;;11.68;5.45;;;9.40;74.50;;;;;;5065670;28;20666;-73
2021/04/27 06:07:10;;;;;;;9.38;5.65;;;9.40;74.50;;;;;;5067456;28;20280;-72
2021/04/27 06:09:37;;;;;;;12.80;5.85;;;9.50;74.60;;;;;;5067598;28;20198;-73
2021/04/27 06:12:04;;;;;;;8.77;5.40;;;9.50;74.50;;;;;;5065049;28;20207;-73
2021/04/27 06:14:30;;;;;;;9.43;5.80;;;9.50;74.40;;;;;;5066530;28;20236;-75
2021/04/27 06:16:57;;;;;;;9.27;5.30;;;9.50;74.30;;;;;;5067639;28;20205;-75
2021/04/27 06:19:24;;;;;;;13.02;6.30;;;9.60;74.20;;;;;;5071606;28;20218;-73
2021/04/27 06:21:51;;;;;;;10.57;5.70;;;9.60;74.20;;;;;;5073046;28;20254;-73
2021/04/27 06:24:17;;;;;;;12.00;5.50;;;9.60;74.10;;;;;;5070525;28;20225;-74
2021/04/27 06:26:45;;;;;;;11.35;6.22;;;9.60;74.10;;;;;;5068351;28;20222;-74
2021/04/27 06:29:11;;;;;;;16.08;6.15;;;9.60;74.00;;;;;;5069686;28;22625;-72
2021/04/27 06:31:38;;;;;;;9.35;5.97;;;9.60;74.00;;;;;;5069469;28;20202;-71
2021/04/27 06:34:06;;;;;;;13.32;5.80;;;9.60;73.90;;;;;;5086156;28;20230;-71
2021/04/27 06:36:34;;;;;;;11.90;6.55;;;9.60;73.90;;;;;;5074128;28;20209;-70
2021/04/27 06:39:01;;;;;;;12.70;6.72;;;9.60;73.80;;;;;;5082890;28;20450;-71
2021/04/27 06:41:29;;;;;;;8.82;6.00;;;9.60;73.70;;;;;;5072744;28;20203;-72
2021/04/27 06:43:55;;;;;;;12.88;6.07;;;9.60;73.70;;;;;;5073225;28;20602;-73
2021/04/27 06:46:22;;;;;;;9.82;6.38;;;9.60;73.80;;;;;;5077154;28;20190;-71
2021/04/27 06:48:49;;;;;;;10.35;6.20;;;9.60;73.80;;;;;;5081207;28;20269;-73
2021/04/27 06:51:17;;;;;;;9.98;6.38;;;9.60;73.90;;;;;;5075398;28;20277;-70
2021/04/27 06:53:45;;;;;;;12.02;6.15;;;9.60;73.80;;;;;;5088030;28;20225;-72
2021/04/27 06:56:12;;;;;;;8.25;6.18;;;9.60;73.80;;;;;;5074725;28;20190;-71
2021/04/27 06:58:38;;;;;;;13.90;6.57;;;9.70;73.70;;;;;;5073181;28;20254;-71
2021/04/27 07:01:05;;;;;;;12.75;6.50;;;9.70;73.60;;;;;;5070207;28;20250;-72
2021/04/27 07:03:32;;;;;;;11.77;6.30;;;9.70;73.50;;;;;;5081198;28;20326;-72
2021/04/27 07:05:59;;;;;;;14.10;6.20;;;9.70;74.20;;;;;;5081331;28;20193;-75
2021/04/27 07:08:25;;;;;;;13.15;6.47;;;9.70;73.30;;;;;;5086207;28;20560;-75
2021/04/27 07:10:53;;;;;;;12.23;6.30;;;9.70;73.40;;;;;;5073599;28;20347;-70
2021/04/27 07:13:20;;;;;;;10.70;6.78;;;9.70;73.30;;;;;;5079258;28;20201;-71
2021/04/27 07:15:46;;;;;;;9.43;6.15;;;9.80;73.10;;;;;;5085772;28;20609;-71
2021/04/27 07:18:14;;;;;;;9.93;6.95;;;9.80;73.00;;;;;;5080223;28;20210;-72
2021/04/27 07:20:40;;;;;;;12.70;6.55;;;9.80;73.10;;;;;;5087379;28;20210;-73
2021/04/27 07:23:07;;;;;;;10.40;6.90;;;9.80;73.10;;;;;;5086893;28;20198;-72
2021/04/27 07:25:34;;;;;;;13.90;7.35;;;9.80;73.20;;;;;;5078169;28;20220;-73
2021/04/27 07:28:01;;;;;;;11.27;7.53;;;9.80;73.50;;;;;;5074314;28;20202;-73
2021/04/27 07:30:28;;;;;;;12.25;7.60;;;9.90;73.50;;;;;;5078582;28;20719;-73
2021/04/27 07:32:54;;;;;;;12.57;7.68;;;9.90;73.60;;;;;;5068571;28;20575;-72
2021/04/27 07:35:21;;;;;;;20.40;8.88;;;10.00;73.60;;;;;;5071780;28;20244;-72
2021/04/27 07:37:47;;;;;;;21.85;11.57;;;10.00;73.50;;;;;;5088456;28;20198;-74
2021/04/27 07:40:14;;;;;;;15.80;11.02;;;10.00;73.40;;;;;;5081282;28;20255;-73
2021/04/27 07:42:40;;;;;;;17.52;12.13;;;10.00;73.50;;;;;;5093098;28;20200;-72
2021/04/27 07:45:09;;;;;;;15.98;11.63;;;10.10;73.80;;;;;;5073977;28;20207;-73
2021/04/27 07:47:36;;;;;;;17.42;11.30;;;10.10;73.90;;;;;;5072505;28;20206;-74
2021/04/27 07:50:03;;;;;;;21.58;11.27;;;10.10;73.90;;;;;;5070996;28;20237;-74
2021/04/27 07:52:31;;;;;;;19.15;11.50;;;10.10;73.90;;;;;;5091917;28;20209;-73
2021/04/27 07:54:58;;;;;;;18.85;10.85;;;10.20;73.90;;;;;;5071802;28;20214;-74
2021/04/27 07:57:24;;;;;;;17.25;11.15;;;10.20;73.90;;;;;;5077891;28;20205;-74
2021/04/27 07:59:50;;;;;;;18.25;10.52;;;10.20;74.00;;;;;;5070595;28;20238;-73
2021/04/27 08:02:18;;;;;;;15.95;10.80;;;10.30;74.10;;;;;;5081848;28;20198;-73
2021/04/27 08:04:45;;;;;;;18.58;10.20;;;10.40;74.00;;;;;;5075750;28;20714;-72
2021/04/27 08:07:12;;;;;;;21.70;9.10;;;10.40;73.90;;;;;;5072233;28;20205;-74
2021/04/27 08:09:39;;;;;;;13.27;9.13;;;10.50;73.80;;;;;;5077434;28;20206;-73
2021/04/27 08:12:06;;;;;;;13.63;9.07;;;10.50;73.80;;;;;;5083744;28;20198;-72
2021/04/27 08:14:33;;;;;;;14.65;9.15;;;10.60;73.80;;;;;;5085060;28;20545;-77
2021/04/27 08:16:59;;;;;;;18.13;8.38;;;10.60;73.50;;;;;;5084930;28;20259;-73
2021/04/27 08:19:27;;;;;;;16.50;8.77;;;10.70;73.40;;;;;;5089994;28;20213;-73
2021/04/27 08:21:53;;;;;;;12.52;8.55;;;10.70;73.10;;;;;;5076141;28;20206;-72
2021/04/27 08:24:20;;;;;;;18.77;9.07;;;10.80;72.90;;;;;;5073341;28;20227;-73
2021/04/27 08:26:46;;;;;;;15.18;8.38;;;10.80;72.70;;;;;;5088177;28;20562;-72
2021/04/27 08:29:12;;;;;;;15.68;8.35;;;10.90;72.30;;;;;;5081009;28;20664;-72
2021/04/27 08:31:39;;;;;;;17.10;9.15;;;10.90;72.00;;;;;;5076025;28;20213;-73
2021/04/27 08:34:05;;;;;;;15.20;9.45;;;11.00;71.90;;;;;;5073865;28;20284;-73
2021/04/27 08:36:33;;;;;;;16.25;9.02;;;11.00;71.90;;;;;;5086635;28;20995;-73
2021/04/27 08:38:59;;;;;;;15.77;9.43;;;11.10;71.80;;;;;;5068075;28;20321;-72
2021/04/27 08:41:26;;;;;;;15.43;9.27;;;11.10;71.60;;;;;;5063774;28;20284;-74
2021/04/27 08:43:53;;;;;;;24.80;9.38;;;11.20;71.40;;;;;;5058760;28;20199;-72
2021/04/27 08:46:20;;;;;;;13.93;9.00;;;11.20;71.20;;;;;;5065275;28;20260;-73
2021/04/27 08:48:47;;;;;;;14.07;9.63;;;11.30;71.20;;;;;;5063352;28;20194;-74
2021/04/27 08:51:14;;;;;;;13.07;9.52;;;11.30;71.10;;;;;;5061591;28;20209;-74
2021/04/27 08:53:42;;;;;;;13.13;8.90;;;11.40;71.10;;;;;;5065252;28;20209;-75
2021/04/27 08:56:08;;;;;;;14.02;8.93;;;11.40;71.00;;;;;;5065281;28;20214;-74
2021/04/27 08:58:35;;;;;;;13.70;9.55;;;11.50;70.90;;;;;;5060366;28;20211;-74
2021/04/27 09:01:01;;;;;;;16.88;9.45;;;11.60;70.70;;;;;;5060668;28;20245;-73
2021/04/27 09:03:40;;;;;;;15.95;10.10;;;11.60;70.60;;;;;;5063904;28;20285;-78
2021/04/27 09:06:13;;;;;;;21.08;9.82;;;11.70;70.20;;;;;;5078493;28;20201;-75
2021/04/27 09:08:41;;;;;;;14.93;9.05;;;11.70;69.90;;;;;;5081230;28;20186;-74
2021/04/27 09:11:28;;;;;;;13.23;9.15;;;11.80;69.60;;;;;;5081547;28;20194;-73
2021/04/27 09:14:10;;;;;;;14.77;9.02;;;11.80;69.20;;;;;;5069593;28;20187;-74
2021/04/27 09:16:37;;;;;;;15.57;9.60;;;11.90;69.00;;;;;;5071424;28;20210;-73
2021/04/27 09:19:04;;;;;;;15.70;9.25;;;11.90;68.60;;;;;;5061154;28;20261;-74
2021/04/27 09:21:37;;;;;;;10.85;8.02;;;12.00;68.40;;;;;;5059563;28;20201;-75
2021/04/27 09:24:16;;;;;;;14.10;8.32;;;12.00;67.90;;;;;;5060404;28;20221;-74
2021/04/27 09:26:44;;;;;;;12.50;8.15;;;12.10;67.30;;;;;;5061231;28;20729;-74
2021/04/27 09:29:10;;;;;;;14.30;8.25;;;12.20;67.40;;;;;;5064521;28;20282;-73
2021/04/27 09:31:38;;;;;;;11.85;7.38;;;12.20;67.50;;;;;;5062842;28;20595;-74
2021/04/27 09:34:27;;;;;;;13.27;6.82;;;12.30;67.20;;;;;;5061433;28;20218;-74
2021/04/27 09:36:57;;;;;;;11.15;7.05;;;12.40;66.70;;;;;;5054653;28;20277;-75
2021/04/27 09:39:41;;;;;;;10.90;6.28;;;12.50;65.80;;;;;;5058686;28;20214;-74
2021/04/27 09:42:13;;;;;;;13.30;6.32;;;12.60;64.30;;;;;;5066651;28;20202;-75
2021/04/27 09:44:43;;;;;;;12.32;6.50;;;12.60;62.90;;;;;;5088475;28;20284;-75
2021/04/27 09:47:16;;;;;;;11.52;6.25;;;12.70;61.80;;;;;;5066768;28;20773;-74
2021/04/27 09:49:54;;;;;;;11.73;6.25;;;12.80;60.90;;;;;;5067166;28;20214;-74
2021/04/27 09:52:21;;;;;;;10.35;6.25;;;12.90;59.60;;;;;;5085597;28;20205;-74
2021/04/27 09:55:00;;;;;;;14.95;6.82;;;13.10;59.00;;;;;;5068689;28;20231;-72
2021/04/27 09:57:27;;;;;;;10.07;6.65;;;13.20;58.30;;;;;;5069510;28;20293;-71
2021/04/27 09:59:55;;;;;;;13.95;7.13;;;13.30;57.80;;;;;;5071846;28;20233;-71
2021/04/27 10:02:22;;;;;;;11.32;6.13;;;13.40;57.00;;;;;;5069939;28;20202;-70
2021/04/27 10:04:50;;;;;;;15.57;6.88;;;13.50;56.30;;;;;;5072847;28;20206;-74
2021/04/27 10:07:18;;;;;;;12.95;6.85;;;13.60;55.90;;;;;;5070782;28;20210;-72
2021/04/27 10:09:46;;;;;;;13.07;6.65;;;13.60;55.40;;;;;;5073463;28;20259;-73
2021/04/27 10:12:13;;;;;;;11.23;7.13;;;13.80;55.20;;;;;;5071114;28;20615;-73
2021/04/27 10:14:40;;;;;;;11.52;6.68;;;13.90;54.70;;;;;;5071399;28;20210;-72
2021/04/27 10:17:07;;;;;;;12.20;7.10;;;14.00;54.20;;;;;;5072463;28;20212;-73
2021/04/27 10:19:34;;;;;;;13.80;6.82;;;14.10;54.00;;;;;;5072190;28;20218;-73
2021/04/27 10:22:01;;;;;;;13.32;7.03;;;14.20;53.50;;;;;;5075735;28;20202;-72
2021/04/27 10:24:27;;;;;;;11.70;7.13;;;14.30;53.10;;;;;;5073058;28;20211;-72
2021/04/27 10:26:54;;;;;;;9.98;6.97;;;14.40;52.60;;;;;;5071327;28;20199;-73
2021/04/27 10:29:23;;;;;;;14.65;7.18;;;14.40;52.30;;;;;;5069832;28;20267;-75
2021/04/27 10:32:16;;;;;;;11.73;7.53;;;14.50;52.40;;;;;;5077214;28;20198;-72
2021/04/27 10:35:09;;;;;;;12.90;6.85;;;14.60;52.20;;;;;;5081749;28;20202;-73
2021/04/27 10:38:01;;;;;;;11.63;7.43;;;14.70;51.90;;;;;;5075314;28;20206;-73
2021/04/27 10:40:46;;;;;;;12.68;6.97;;;14.80;52.40;;;;;;5060416;28;20234;-72
2021/04/27 10:43:38;;;;;;;10.00;7.22;;;14.90;51.70;;;;;;5067829;28;20194;-73
2021/04/27 10:46:10;;;;;;;14.52;7.28;;;15.00;51.50;;;;;;5071359;28;20252;-74
2021/04/27 10:48:38;;;;;;;13.38;6.55;;;15.00;51.00;;;;;;5069824;28;20248;-75
2021/04/27 10:51:36;;;;;;;10.30;7.38;;;15.10;50.50;;;;;;5074436;28;20246;-72
2021/04/27 10:54:06;;;;;;;9.82;6.95;;;15.20;50.40;;;;;;5009997;28;20235;-73
2021/04/27 10:56:39;;;;;;;12.90;7.18;;;15.30;50.40;;;;;;5060190;28;20259;-72
2021/04/27 10:59:07;;;;;;;10.45;6.45;;;15.40;50.20;;;;;;5069021;28;20566;-72
2021/04/27 11:01:35;;;;;;;7.80;6.07;;;15.50;50.10;;;;;;5074654;28;20540;-73
2021/04/27 11:04:01;;;;;;;9.82;5.72;;;15.60;49.20;;;;;;5072221;28;20210;-71
2021/04/27 11:06:28;;;;;;;8.82;5.97;;;15.70;48.10;;;;;;5073535;28;20215;-72
2021/04/27 11:08:56;;;;;;;7.82;5.93;;;15.70;46.90;;;;;;5073552;28;20255;-73
2021/04/27 11:11:27;;;;;;;13.15;5.82;;;15.80;45.80;;;;;;5069284;28;20558;-72
2021/04/27 11:14:13;;;;;;;18.25;6.80;;;15.90;45.10;;;;;;5077575;28;20189;-72
2021/04/27 11:16:41;;;;;;;9.07;6.25;;;15.90;44.90;;;;;;5071043;28;20268;-73
2021/04/27 11:19:13;;;;;;;9.02;5.70;;;16.00;44.50;;;;;;5072724;28;20210;-72
2021/04/27 11:21:40;;;;;;;10.48;5.82;;;16.00;43.80;;;;;;5071633;28;20202;-71
2021/04/27 11:24:08;;;;;;;9.55;6.53;;;16.10;43.60;;;;;;5071076;28;20624;-75
2021/04/27 11:26:56;;;;;;;9.05;6.15;;;16.20;43.50;;;;;;5074918;28;20202;-74
2021/04/27 11:29:25;;;;;;;13.88;6.40;;;16.30;43.30;;;;;;5068153;28;20187;-72
2021/04/27 11:32:05;;;;;;;9.25;5.85;;;16.40;43.50;;;;;;5075531;28;20205;-71
2021/04/27 11:34:46;;;;;;;15.80;6.30;;;16.50;43.10;;;;;;5070214;28;20201;-71
2021/04/27 11:37:16;;;;;;;11.43;6.18;;;16.60;42.50;;;;;;5071610;28;20307;-73
2021/04/27 11:39:43;;;;;;;8.75;5.18;;;16.60;42.50;;;;;;5065125;28;20234;-72
2021/04/27 11:42:09;;;;;;;9.52;5.65;;;16.70;41.90;;;;;;5072389;28;20194;-72
2021/04/27 11:44:38;;;;;;;9.23;5.55;;;16.80;41.30;;;;;;5069440;28;20210;-70
2021/04/27 11:47:08;;;;;;;7.68;6.03;;;16.90;41.00;;;;;;5077062;28;20210;-72
2021/04/27 11:49:55;;;;;;;10.25;6.00;;;17.00;40.90;;;;;;5067007;28;20217;-72
2021/04/27 11:52:49;;;;;;;9.80;6.75;;;17.10;40.60;;;;;;5076976;28;20206;-73
2021/04/27 11:55:21;;;;;;;8.25;5.72;;;17.30;40.40;;;;;;5068568;28;20555;-72
2021/04/27 11:57:50;;;;;;;10.55;6.50;;;17.40;40.50;;;;;;5073073;28;20208;-72
2021/04/27 12:00:16;;;;;;;12.43;6.72;;;17.50;40.40;;;;;;5066267;28;20241;-73
2021/04/27 12:02:44;;;;;;;9.80;6.25;;;17.60;40.20;;;;;;5068977;28;20221;-72
2021/04/27 12:05:11;;;;;;;9.52;6.00;;;17.70;39.80;;;;;;5068768;28;20207;-73
2021/04/27 12:07:38;;;;;;;15.85;6.03;;;17.80;39.70;;;;;;5073342;28;20717;-71
2021/04/27 12:10:06;;;;;;;10.65;6.25;;;17.90;39.40;;;;;;5066666;28;20240;-73
2021/04/27 12:12:32;;;;;;;8.77;6.15;;;17.90;39.30;;;;;;5070452;28;20301;-73
2021/04/27 12:15:00;;;;;;;9.45;5.72;;;18.00;39.40;;;;;;5068261;28;22343;-73
2021/04/27 12:17:29;;;;;;;11.88;6.70;;;18.20;39.60;;;;;;5068574;28;20667;-72
2021/04/27 12:20:06;;;;;;;7.05;5.25;;;18.40;39.60;;;;;;5067052;28;20214;-75
2021/04/27 12:22:39;;;;;;;9.63;6.70;;;18.50;39.00;;;;;;5069364;28;20202;-74
2021/04/27 12:25:23;;;;;;;6.97;5.70;;;18.70;38.60;;;;;;5067812;28;20726;-73
2021/04/27 12:27:52;;;;;;;9.38;5.97;;;18.90;38.10;;;;;;5068422;28;20209;-73
2021/04/27 12:30:22;;;;;;;6.78;5.75;;;19.00;38.10;;;;;;5067728;28;20194;-73
2021/04/27 12:32:59;;;;;;;10.43;5.80;;;19.20;37.80;;;;;;5069009;28;20259;-70
2021/04/27 12:35:28;;;;;;;9.60;5.85;;;19.40;37.50;;;;;;5070892;28;20198;-71
2021/04/27 12:38:01;;;;;;;10.38;6.32;;;19.60;37.60;;;;;;5071632;28;20199;-73
2021/04/27 12:40:29;;;;;;;14.13;5.88;;;19.70;37.40;;;;;;5070061;28;20226;-73
2021/04/27 12:43:01;;;;;;;8.57;5.93;;;19.90;37.00;;;;;;5068258;28;20331;-73
2021/04/27 12:45:29;;;;;;;9.63;6.45;;;20.00;36.70;;;;;;5064721;28;20210;-74
2021/04/27 12:48:03;;;;;;;9.10;5.72;;;20.00;36.40;;;;;;5072978;28;20643;-74
2021/04/27 12:50:31;;;;;;;7.70;5.57;;;20.10;36.00;;;;;;5069187;28;20661;-73
2021/04/27 12:53:00;;;;;;;15.85;6.80;;;20.20;35.90;;;;;;5069657;28;20662;-72
2021/04/27 12:55:29;;;;;;;8.80;5.40;;;20.30;35.60;;;;;;5067603;28;20362;-74
2021/04/27 12:58:08;;;;;;;10.93;5.40;;;20.40;35.40;;;;;;5069807;28;20198;-70
2021/04/27 13:00:35;;;;;;;7.25;5.15;;;20.70;34.90;;;;;;5066033;28;20291;-73